CheckWX is a tool to help pilots better visualize weather data.  It is not intended as a substitute for an official pre-flight weather briefing.

09:30:46 UTC

KSSI METAR
McKinnon St Simons Island Airport
Brunswick, Georgia, USA
Current

38 mins ago

KSSI 200853Z AUTO 02014G22KT 10SM BKN004 OVC013 14/12 A3016 RMK AO2 PK WND 02026/0823 SLP215 60015 T01390122 58019 $
Observed
Feb-20 @ 08:53 UTC
Wind
  • 020° at 14 KTS
  • Gusting to 22 KTS
Visibility
16,093 meters
Flight Rules
LIFR
Cloud Levels
  • Broken at 400' AGL
  • Overcast at 1,300' AGL
Temperature
14°C / 57°F
Dewpoint
12°C / 54°F
Humidity
88%
Altimeter
30.16" Hg
Pressure
1021.5 hPa
Previous

1 hour ago

KSSI 200827Z AUTO 02016G26KT 10SM SCT005 OVC014 14/12 A3017 RMK AO2 PK WND 02026/0823 T01390122 $
Observed
Feb-20 @ 08:27 UTC
Wind
  • 020° at 16 KTS
  • Gusting to 26 KTS
Visibility
16,093 meters
Flight Rules
MVFR
Cloud Levels
  • Scattered at 500' AGL
  • Overcast at 1,400' AGL
Temperature
14°C / 57°F
Dewpoint
12°C / 54°F
Humidity
88%
Altimeter
30.17" Hg
Pressure
1021.72 hPa
Previous

2 hours ago

KSSI 200753Z AUTO 03016G21KT 10SM BKN005 OVC009 14/13 A3019 RMK AO2 PK WND 03026/0733 RAE26 SLP223 P0004 T01440128 $
Observed
Feb-20 @ 07:53 UTC
Wind
  • 030° at 16 KTS
  • Gusting to 21 KTS
Visibility
16,093 meters
Flight Rules
IFR
Cloud Levels
  • Broken at 500' AGL
  • Overcast at 900' AGL
Temperature
14°C / 57°F
Dewpoint
13°C / 55°F
Humidity
94%
Altimeter
30.19" Hg
Pressure
1022.3 hPa
Current Rain
0.04"